KWAL/WAL METAR and TAF weather

Enter ICAO airport designator
Station Type Date Time Source
KWAL METAR 2022/06/27 06:54 UTC NOAA

KWAL 270654Z AUTO 20010KT 10SM BKN065 23/21 A3007 RMK AO2 SLP178 T02280206


Station Type Date Time Source
KWAL Decoded METAR 2022/06/27 06:54 UTC NOAA

WALLOPS FLIGHT FAC AIRPORT , VA, United States (KWAL) 37-56N 075-28W 14M
Jun 27, 2022 - 02:54 AM EDT / 2022.06.27 0654 UTC
Wind: from the SSW (200 degrees) at 12 MPH (10 KT):0
Visibility: 10 mile(s):0
Sky conditions: mostly cloudy
Temperature: 73.0 F (22.8 C)
Dew Point: 69.1 F (20.6 C)
Relative Humidity: 87%
Pressure (altimeter): 30.07 in. Hg (1018 hPa)
ob: KWAL 270654Z AUTO 20010KT 10SM BKN065 23/21 A3007 RMK AO2 SLP178 T02280206
cycle: 7

Station Type Date Time Source
KWAL TAF UTC NOAA

Error!

Example: see airport list